createdAt,value
2022-08-23T00:00:22.754Z,19.22
2022-08-23T00:02:55.838Z,19.21
2022-08-23T00:05:26.547Z,19.08
2022-08-23T00:07:57.116Z,19.12
2022-08-23T00:10:27.504Z,19.27
2022-08-23T00:12:58.092Z,18.82
2022-08-23T00:15:29.487Z,18.83
2022-08-23T00:18:01.851Z,18.76
2022-08-23T00:20:32.557Z,19.05
2022-08-23T00:23:03.148Z,19.06
2022-08-23T00:25:35.179Z,19.47
2022-08-23T00:28:05.767Z,19.26
2022-08-23T00:30:38.556Z,19.15
2022-08-23T00:33:12.606Z,19.06
2022-08-23T00:35:43.318Z,18.86
2022-08-23T00:38:33.162Z,18.92
2022-08-23T00:40:50.582Z,19.00
2022-08-23T00:43:45.005Z,18.85
2022-08-23T00:46:42.708Z,18.83
2022-08-23T00:49:15.497Z,18.74
2022-08-23T00:51:55.124Z,19.18
2022-08-23T00:54:27.954Z,19.22
2022-08-23T00:57:01.035Z,19.30
2022-08-23T00:59:33.268Z,19.21
2022-08-23T01:02:04.530Z,19.24
2022-08-23T01:04:38.192Z,19.11
2022-08-23T01:07:46.875Z,19.18
2022-08-23T01:10:29.053Z,19.32
2022-08-23T01:13:05.608Z,19.10
2022-08-23T01:15:42.021Z,19.02
2022-08-23T01:18:14.709Z,19.00
2022-08-23T01:20:51.168Z,18.82
2022-08-23T01:23:33.766Z,18.71
2022-08-23T01:26:05.238Z,18.66
2022-08-23T01:28:36.402Z,18.65
2022-08-23T01:31:07.524Z,18.69
2022-08-23T01:33:40.553Z,18.80
2022-08-23T01:36:14.112Z,19.04
2022-08-23T01:38:46.291Z,19.02
2022-08-23T01:41:17.916Z,18.88
2022-08-23T01:43:48.399Z,18.74
2022-08-23T01:46:21.913Z,18.94
2022-08-23T01:48:55.975Z,18.70
2022-08-23T01:51:26.820Z,18.63
2022-08-23T01:53:58.314Z,18.70
2022-08-23T01:56:38.774Z,18.61
2022-08-23T01:59:03.888Z,18.83
2022-08-23T02:01:35.540Z,18.87
2022-08-23T02:04:06.596Z,19.00
2022-08-23T02:06:37.157Z,18.96
2022-08-23T02:09:17.186Z,19.21
2022-08-23T02:11:43.415Z,19.15
2022-08-23T02:14:17.028Z,18.90
2022-08-23T02:17:02.805Z,19.02
2022-08-23T02:19:23.020Z,18.63
2022-08-23T02:21:53.697Z,18.67
2022-08-23T02:24:26.215Z,18.59
2022-08-23T02:26:59.679Z,18.54
2022-08-23T02:29:32.516Z,18.57
2022-08-23T02:32:04.611Z,18.57
2022-08-23T02:34:36.510Z,18.58
2022-08-23T02:37:10.681Z,18.49
2022-08-23T02:39:42.491Z,18.60
2022-08-23T02:42:14.359Z,18.52
2022-08-23T02:44:44.961Z,18.52
2022-08-23T02:47:16.802Z,18.50
2022-08-23T02:49:47.376Z,18.61
2022-08-23T02:52:17.852Z,18.47
2022-08-23T02:54:48.304Z,18.46
2022-08-23T02:57:18.750Z,18.48
2022-08-23T02:59:49.698Z,18.56
2022-08-23T03:02:20.955Z,18.68
2022-08-23T03:04:51.794Z,18.53
2022-08-23T03:07:22.370Z,18.46
2022-08-23T03:09:53.093Z,18.46
2022-08-23T03:12:24.365Z,18.56
2022-08-23T03:14:54.730Z,18.50
2022-08-23T03:17:25.258Z,18.63
2022-08-23T03:19:55.615Z,18.60
2022-08-23T03:22:28.015Z,18.88
2022-08-23T03:24:58.633Z,18.80
2022-08-23T03:27:30.776Z,18.84
2022-08-23T03:30:01.511Z,18.59
2022-08-23T03:32:32.418Z,18.54
2022-08-23T03:35:05.153Z,18.44
2022-08-23T03:37:38.229Z,18.32
2022-08-23T03:40:11.652Z,18.25
2022-08-23T03:42:42.181Z,18.42
2022-08-23T03:45:12.893Z,18.47
2022-08-23T03:47:44.045Z,18.33
2022-08-23T03:50:15.358Z,18.36
2022-08-23T03:52:46.981Z,18.30
2022-08-23T03:55:18.065Z,18.48
2022-08-23T03:57:49.310Z,18.32
2022-08-23T04:00:20.269Z,18.50
2022-08-23T04:02:51.069Z,18.30
2022-08-23T04:05:22.409Z,18.39
2022-08-23T04:07:53.797Z,18.37
2022-08-23T04:10:24.611Z,18.27
2022-08-23T04:12:55.200Z,18.30
2022-08-23T04:15:25.786Z,18.24
2022-08-23T04:17:56.211Z,18.47
2022-08-23T04:20:27.207Z,18.31
2022-08-23T04:22:59.412Z,18.43
2022-08-23T04:25:34.837Z,18.40
2022-08-23T04:28:04.078Z,18.58
2022-08-23T04:30:34.928Z,18.41
2022-08-23T04:33:10.587Z,18.30
2022-08-23T04:35:41.378Z,18.34
2022-08-23T04:38:18.138Z,18.32
2022-08-23T04:41:02.905Z,18.40
2022-08-23T04:43:35.029Z,18.70
2022-08-23T04:46:05.596Z,18.60
2022-08-23T04:48:36.659Z,18.38
2022-08-23T04:51:07.730Z,18.24
2022-08-23T04:53:40.189Z,18.44
2022-08-23T04:56:11.263Z,18.51
2022-08-23T04:58:41.788Z,18.46
2022-08-23T05:01:17.226Z,18.25
2022-08-23T05:03:49.222Z,18.45
2022-08-23T05:06:19.979Z,18.55
2022-08-23T05:08:50.810Z,18.46
2022-08-23T05:11:21.595Z,18.16
2022-08-23T05:13:52.266Z,18.38
2022-08-23T05:16:23.103Z,18.28
2022-08-23T05:18:57.891Z,18.40
2022-08-23T05:21:28.421Z,18.40
2022-08-23T05:23:58.973Z,18.67
2022-08-23T05:26:29.598Z,18.57
2022-08-23T05:29:00.251Z,18.49
2022-08-23T05:31:31.603Z,18.45
2022-08-23T05:34:03.844Z,18.56
2022-08-23T05:36:34.695Z,18.69
2022-08-23T05:39:07.050Z,19.03
2022-08-23T05:41:38.678Z,18.85
2022-08-23T05:44:11.849Z,18.93
2022-08-23T05:46:46.309Z,18.91
2022-08-23T05:49:21.117Z,18.94
2022-08-23T05:51:51.495Z,18.98
2022-08-23T05:54:22.738Z,19.11
2022-08-23T05:56:56.430Z,19.34
2022-08-23T05:59:27.553Z,19.57
2022-08-23T06:01:59.207Z,19.74
2022-08-23T06:04:29.729Z,19.76
2022-08-23T06:07:00.173Z,20.10
2022-08-23T06:09:30.584Z,20.21
2022-08-23T06:12:02.618Z,19.98
2022-08-23T06:14:33.279Z,20.09
2022-08-23T06:17:03.940Z,20.20
2022-08-23T06:19:35.139Z,19.76
2022-08-23T06:22:07.383Z,19.82
2022-08-23T06:24:37.965Z,20.24
2022-08-23T06:27:09.814Z,19.87
2022-08-23T06:29:41.474Z,19.78
2022-08-23T06:32:13.342Z,20.02
2022-08-23T06:34:48.572Z,20.02
2022-08-23T06:37:19.234Z,19.80
2022-08-23T06:39:49.789Z,20.00
2022-08-23T06:42:40.988Z,19.85
2022-08-23T06:44:59.362Z,20.10
2022-08-23T06:47:32.757Z,20.10
2022-08-23T06:50:03.281Z,20.15
2022-08-23T06:52:33.889Z,20.12
2022-08-23T06:55:04.588Z,20.07
2022-08-23T06:57:35.132Z,20.18
2022-08-23T07:00:08.708Z,20.29
2022-08-23T07:02:40.341Z,20.48
2022-08-23T07:05:11.080Z,20.53
2022-08-23T07:07:51.525Z,20.50
2022-08-23T07:10:22.160Z,20.50
2022-08-23T07:12:55.129Z,20.24
2022-08-23T07:15:25.603Z,20.18
2022-08-23T07:17:56.322Z,20.30
2022-08-23T07:20:26.871Z,20.78
2022-08-23T07:23:00.924Z,20.87
2022-08-23T07:25:32.533Z,20.72
2022-08-23T07:28:03.245Z,20.72
2022-08-23T07:30:34.043Z,20.80
2022-08-23T07:33:07.296Z,20.98
2022-08-23T07:35:40.411Z,21.00
2022-08-23T07:38:13.903Z,21.02
2022-08-23T07:40:46.786Z,21.06
2022-08-23T07:43:18.936Z,20.93
2022-08-23T07:45:50.258Z,21.60
2022-08-23T07:48:37.311Z,21.46
2022-08-23T07:51:01.023Z,21.24
2022-08-23T07:53:38.125Z,21.64
2022-08-23T07:56:08.330Z,21.18
2022-08-23T07:58:39.490Z,21.22
2022-08-23T08:01:16.790Z,21.96
2022-08-23T08:03:53.108Z,21.43
2022-08-23T08:06:38.512Z,21.70
2022-08-23T08:09:10.386Z,21.90
2022-08-23T08:11:43.476Z,22.35
2022-08-23T08:14:14.417Z,22.23
2022-08-23T08:16:48.390Z,22.68
2022-08-23T08:19:19.957Z,22.94
2022-08-23T08:21:51.355Z,22.71
2022-08-23T08:24:22.024Z,21.73
2022-08-23T08:26:52.774Z,21.59
2022-08-23T08:29:23.543Z,22.17
2022-08-23T08:31:54.544Z,22.41
2022-08-23T08:34:25.743Z,22.48
2022-08-23T08:36:58.959Z,22.72
2022-08-23T08:39:32.233Z,23.05
2022-08-23T08:42:17.732Z,22.96
2022-08-23T08:45:09.049Z,23.17
2022-08-23T08:47:45.668Z,23.16
2022-08-23T08:50:31.878Z,23.69
2022-08-23T08:53:05.945Z,23.49
2022-08-23T08:55:45.148Z,23.54
2022-08-23T08:58:26.002Z,24.04
2022-08-23T09:00:59.255Z,23.88
2022-08-23T09:03:32.997Z,23.38
2022-08-23T09:06:07.128Z,23.09
2022-08-23T09:09:02.169Z,23.04
2022-08-23T09:11:52.663Z,23.35
2022-08-23T09:14:47.529Z,23.45
2022-08-23T09:17:24.788Z,23.28
2022-08-23T09:20:05.148Z,23.07
2022-08-23T09:22:46.675Z,23.46
2022-08-23T09:25:17.839Z,22.58
2022-08-23T09:27:48.457Z,22.69
2022-08-23T09:30:20.327Z,22.36
2022-08-23T09:32:52.303Z,22.42
2022-08-23T09:35:25.712Z,22.89
2022-08-23T09:38:05.459Z,23.23
2022-08-23T09:40:41.523Z,22.86
2022-08-23T09:43:20.389Z,23.58
2022-08-23T09:45:57.089Z,23.40
2022-08-23T09:48:42.639Z,23.05
2022-08-23T09:51:34.976Z,22.81
2022-08-23T09:54:08.441Z,22.99
2022-08-23T09:56:45.248Z,23.63
2022-08-23T09:59:28.459Z,23.62
2022-08-23T10:02:03.198Z,23.83
2022-08-23T10:04:42.582Z,23.85
2022-08-23T10:07:30.836Z,23.86
2022-08-23T10:10:26.538Z,23.57
2022-08-23T10:12:59.001Z,23.58
2022-08-23T10:15:49.834Z,23.87
2022-08-23T10:18:40.049Z,23.84
2022-08-23T10:21:27.722Z,23.61
2022-08-23T10:24:13.957Z,23.55
2022-08-23T10:27:04.148Z,23.36
2022-08-23T10:29:41.458Z,23.86
2022-08-23T10:32:27.153Z,23.38
2022-08-23T10:35:03.856Z,24.44
2022-08-23T10:37:47.491Z,24.27
2022-08-23T10:40:40.477Z,23.97
2022-08-23T10:43:27.461Z,24.50
2022-08-23T10:46:00.796Z,24.96
2022-08-23T10:48:37.530Z,25.14
2022-08-23T10:51:21.186Z,25.38
2022-08-23T10:53:52.413Z,25.56
2022-08-23T10:56:24.145Z,24.80
2022-08-23T10:59:06.430Z,25.18
2022-08-23T11:02:01.258Z,24.75
2022-08-23T11:04:40.822Z,24.76
2022-08-23T11:07:24.603Z,24.54
2022-08-23T11:10:19.553Z,23.96
2022-08-23T11:12:56.220Z,24.50
2022-08-23T11:15:35.751Z,24.48
2022-08-23T11:18:13.723Z,24.61
2022-08-23T11:20:56.945Z,24.56
2022-08-23T11:23:42.591Z,23.88
2022-08-23T11:26:24.858Z,24.28
2022-08-23T11:29:10.891Z,24.58
2022-08-23T11:31:59.394Z,24.77
2022-08-23T11:34:33.498Z,25.04
2022-08-23T11:37:26.438Z,25.34
2022-08-23T11:40:00.135Z,24.80
2022-08-23T11:42:45.985Z,24.81
2022-08-23T11:45:40.633Z,24.95
2022-08-23T11:48:43.498Z,24.81
2022-08-23T11:51:32.374Z,24.66
2022-08-23T11:54:30.432Z,24.32
2022-08-23T11:57:21.702Z,24.21
2022-08-23T12:00:06.242Z,24.25
2022-08-23T12:02:44.374Z,24.66
2022-08-23T12:05:30.887Z,24.24
2022-08-23T12:08:08.143Z,24.23
2022-08-23T12:10:47.663Z,24.14
2022-08-23T12:13:24.009Z,24.58
2022-08-23T12:16:17.543Z,24.56
2022-08-23T12:18:54.599Z,24.48
2022-08-23T12:21:37.262Z,24.55
2022-08-23T12:24:26.104Z,25.14
2022-08-23T12:27:02.165Z,25.31
2022-08-23T12:29:41.516Z,24.45
2022-08-23T12:32:44.358Z,24.93
2022-08-23T12:35:42.177Z,25.26
2022-08-23T12:38:22.621Z,24.68
2022-08-23T12:40:56.691Z,24.60
2022-08-23T12:43:30.516Z,24.42
2022-08-23T12:46:02.791Z,24.28
2022-08-23T12:48:36.039Z,24.84
2022-08-23T12:51:12.542Z,24.89
2022-08-23T12:53:45.856Z,25.25
2022-08-23T12:56:32.103Z,24.78
2022-08-23T12:59:07.833Z,24.70
2022-08-23T13:01:41.900Z,24.66
2022-08-23T13:04:15.659Z,24.74
2022-08-23T13:06:58.294Z,25.00
2022-08-23T13:09:32.429Z,24.83
2022-08-23T13:12:03.662Z,25.42
2022-08-23T13:14:37.685Z,25.96
2022-08-23T13:17:27.444Z,25.18
2022-08-23T13:20:10.679Z,24.71
2022-08-23T13:22:57.819Z,25.08
2022-08-23T13:25:36.926Z,25.39
2022-08-23T13:28:28.923Z,25.26
2022-08-23T13:31:02.949Z,25.31
2022-08-23T13:33:36.839Z,25.07
2022-08-23T13:36:17.753Z,24.97
2022-08-23T13:38:48.790Z,25.06
2022-08-23T13:41:38.402Z,25.53
2022-08-23T13:44:09.855Z,25.65
2022-08-23T13:46:45.688Z,25.24
2022-08-23T13:49:19.938Z,25.17
2022-08-23T13:54:52.492Z,25.31
2022-08-23T13:57:19.906Z,25.11
2022-08-23T13:59:53.835Z,24.82
2022-08-23T14:02:25.642Z,24.80
2022-08-23T14:04:56.844Z,24.60
2022-08-23T14:07:27.592Z,24.75
2022-08-23T14:09:58.664Z,24.83
2022-08-23T14:12:32.956Z,24.89
2022-08-23T14:15:07.022Z,24.86
2022-08-23T14:17:40.828Z,25.20
2022-08-23T14:22:47.332Z,25.51
2022-08-23T14:25:18.848Z,24.85
2022-08-23T14:27:51.015Z,25.10
2022-08-23T14:30:29.406Z,24.94
2022-08-23T14:33:01.802Z,24.86
2022-08-23T14:35:32.831Z,25.05
2022-08-23T14:38:14.155Z,25.46
2022-08-23T14:40:37.722Z,25.06
2022-08-23T14:43:10.435Z,24.88
2022-08-23T14:45:42.013Z,24.96
2022-08-23T14:48:16.416Z,26.00
2022-08-23T14:50:48.981Z,25.84
2022-08-23T14:53:22.458Z,25.68
2022-08-23T14:56:19.941Z,26.00
2022-08-23T14:58:27.440Z,26.09
2022-08-23T15:00:58.115Z,25.66
2022-08-23T15:03:29.563Z,25.52
2022-08-23T15:06:01.789Z,25.21
2022-08-23T15:08:32.322Z,24.72
2022-08-23T15:13:41.707Z,24.56
2022-08-23T15:16:12.557Z,24.42
2022-08-23T15:18:48.292Z,24.28
2022-08-23T15:21:25.490Z,24.27
2022-08-23T15:23:57.365Z,24.23
2022-08-23T15:26:32.468Z,24.25
2022-08-23T15:29:03.833Z,24.47
2022-08-23T15:31:34.762Z,24.73
2022-08-23T15:34:05.666Z,24.77
2022-08-23T15:36:42.171Z,24.99
2022-08-23T15:39:12.938Z,24.70
2022-08-23T15:41:45.259Z,24.64
2022-08-23T15:44:16.864Z,24.57
2022-08-23T15:46:49.981Z,24.31
2022-08-23T15:49:21.021Z,24.18
2022-08-23T15:51:51.347Z,24.19
2022-08-23T15:54:21.945Z,24.32
2022-08-23T15:56:53.381Z,24.39
2022-08-23T15:59:23.960Z,24.17
2022-08-23T16:01:54.395Z,24.18
2022-08-23T16:04:24.825Z,24.10
2022-08-23T16:06:55.533Z,24.34
2022-08-23T16:09:26.690Z,24.05
2022-08-23T16:12:00.258Z,23.77
2022-08-23T16:14:31.274Z,23.82
2022-08-23T16:17:02.405Z,23.74
2022-08-23T16:19:33.030Z,23.90
2022-08-23T16:22:03.739Z,24.08
2022-08-23T16:24:34.255Z,24.34
2022-08-23T16:27:07.429Z,24.24
2022-08-23T16:29:40.166Z,23.93
2022-08-23T16:32:10.596Z,23.95
2022-08-23T16:34:41.070Z,23.88
2022-08-23T16:37:11.611Z,23.74
2022-08-23T16:39:43.940Z,23.94
2022-08-23T16:42:14.758Z,24.15
2022-08-23T16:44:45.347Z,23.93
2022-08-23T16:47:18.247Z,23.81
2022-08-23T16:49:48.779Z,23.85
2022-08-23T16:52:20.665Z,23.73
2022-08-23T16:54:51.765Z,23.68
2022-08-23T16:57:22.195Z,23.94
2022-08-23T16:59:52.731Z,23.96
2022-08-23T17:02:34.844Z,23.94
2022-08-23T17:05:08.227Z,23.77
2022-08-23T17:07:39.384Z,23.63
2022-08-23T17:10:12.185Z,23.69
2022-08-23T17:12:47.031Z,23.60
2022-08-23T17:15:21.330Z,23.51
2022-08-23T17:17:52.031Z,23.60
2022-08-23T17:20:25.382Z,23.48
2022-08-23T17:22:56.863Z,23.49
2022-08-23T17:25:27.967Z,23.53
2022-08-23T17:27:58.956Z,23.57
2022-08-23T17:30:30.165Z,23.50
2022-08-23T17:33:00.868Z,23.63
2022-08-23T17:35:33.671Z,23.54
2022-08-23T17:38:06.463Z,23.46
2022-08-23T17:40:40.271Z,23.65
2022-08-23T17:43:12.451Z,23.40
2022-08-23T17:45:46.501Z,23.27
2022-08-23T17:48:21.924Z,23.36
2022-08-23T17:50:55.207Z,23.26
2022-08-23T17:53:26.236Z,23.23
2022-08-23T17:55:57.371Z,23.14
2022-08-23T17:58:28.487Z,23.09
2022-08-23T18:00:59.013Z,22.96
2022-08-23T18:03:31.186Z,22.96
2022-08-23T18:06:02.405Z,22.91
2022-08-23T18:08:34.476Z,22.96
2022-08-23T18:11:05.103Z,22.91
2022-08-23T18:13:35.735Z,22.82
2022-08-23T18:16:07.058Z,22.70
2022-08-23T18:18:37.938Z,22.73
2022-08-23T18:21:12.709Z,22.62
2022-08-23T18:23:43.246Z,22.58
2022-08-23T18:26:32.669Z,22.56
2022-08-23T18:29:05.278Z,22.52
2022-08-23T18:31:35.907Z,22.47
2022-08-23T18:34:06.711Z,22.35
2022-08-23T18:36:37.536Z,22.38
2022-08-23T18:39:09.008Z,22.45
2022-08-23T18:41:39.790Z,22.31
2022-08-23T18:44:11.778Z,22.31
2022-08-23T18:46:44.097Z,22.23
2022-08-23T18:49:15.831Z,22.23
2022-08-23T18:51:46.363Z,22.17
2022-08-23T18:54:16.950Z,22.13
2022-08-23T18:56:47.672Z,22.02
2022-08-23T18:59:19.274Z,22.12
2022-08-23T19:01:50.181Z,21.98
2022-08-23T19:04:20.734Z,21.96
2022-08-23T19:06:52.782Z,21.99
2022-08-23T19:09:23.871Z,21.86
2022-08-23T19:11:54.497Z,21.84
2022-08-23T19:14:24.924Z,21.85
2022-08-23T19:16:55.493Z,21.84
2022-08-23T19:19:26.010Z,21.84
2022-08-23T19:21:56.791Z,21.75
2022-08-23T19:24:28.728Z,21.78
2022-08-23T19:26:59.462Z,21.66
2022-08-23T19:29:29.906Z,21.63
2022-08-23T19:32:01.047Z,21.71
2022-08-23T19:34:31.569Z,21.55
2022-08-23T19:37:02.151Z,21.58
2022-08-23T19:39:32.648Z,21.50
2022-08-23T19:42:09.685Z,21.53
2022-08-23T19:44:37.965Z,21.46
2022-08-23T19:47:19.356Z,21.34
2022-08-23T19:49:40.829Z,21.34
2022-08-23T19:52:11.408Z,21.40
2022-08-23T19:54:41.821Z,21.28
2022-08-23T19:57:13.291Z,21.26
2022-08-23T19:59:44.093Z,21.27
2022-08-23T20:02:14.695Z,21.24
2022-08-23T20:04:45.161Z,21.29
2022-08-23T20:07:15.799Z,21.19
2022-08-23T20:09:47.797Z,21.08
2022-08-23T20:12:18.962Z,21.10
2022-08-23T20:14:49.724Z,21.01
2022-08-23T20:17:20.203Z,21.02
2022-08-23T20:19:51.124Z,20.98
2022-08-23T20:22:40.114Z,20.94
2022-08-23T20:25:10.795Z,21.00
2022-08-23T20:27:41.300Z,21.06
2022-08-23T20:30:13.575Z,20.92
2022-08-23T20:32:45.044Z,20.87
2022-08-23T20:35:15.422Z,20.81
2022-08-23T20:37:45.910Z,20.76
2022-08-23T20:40:16.751Z,20.82
2022-08-23T20:42:47.338Z,20.78
2022-08-23T20:45:17.764Z,20.68
2022-08-23T20:47:48.347Z,20.86
2022-08-23T20:50:19.679Z,20.61
2022-08-23T20:52:50.267Z,20.68
2022-08-23T20:55:20.784Z,20.61
2022-08-23T20:57:51.236Z,20.51
2022-08-23T21:00:22.126Z,20.42
2022-08-23T21:02:52.560Z,20.41
2022-08-23T21:05:23.967Z,20.37
2022-08-23T21:07:56.742Z,20.37
2022-08-23T21:10:27.495Z,20.60
2022-08-23T21:12:58.006Z,20.37
2022-08-23T21:15:28.469Z,20.27
2022-08-23T21:17:58.858Z,20.16
2022-08-23T21:20:33.683Z,20.06
2022-08-23T21:23:04.591Z,20.03
2022-08-23T21:25:36.177Z,19.96
2022-08-23T21:28:06.547Z,20.00
2022-08-23T21:30:37.250Z,20.10
2022-08-23T21:33:09.273Z,19.94
2022-08-23T21:35:39.631Z,19.87
2022-08-23T21:38:10.291Z,19.97
2022-08-23T21:40:42.110Z,19.88
2022-08-23T21:43:12.573Z,19.97
2022-08-23T21:45:43.336Z,19.92
2022-08-23T21:48:13.793Z,19.81
2022-08-23T21:50:45.214Z,19.76
2022-08-23T21:53:16.818Z,19.69
2022-08-23T21:55:47.890Z,19.67
2022-08-23T21:58:18.414Z,19.66
2022-08-23T22:00:49.146Z,19.66
2022-08-23T22:03:19.701Z,19.62
2022-08-23T22:05:50.689Z,19.64
2022-08-23T22:08:21.279Z,19.62
2022-08-23T22:10:57.928Z,19.52
2022-08-23T22:13:25.119Z,19.60
2022-08-23T22:15:56.170Z,19.42
2022-08-23T22:18:26.654Z,19.46
2022-08-23T22:20:58.294Z,19.34
2022-08-23T22:23:31.394Z,19.43
2022-08-23T22:26:04.091Z,19.44
2022-08-23T22:28:35.949Z,19.32
2022-08-23T22:31:08.400Z,19.35
2022-08-23T22:33:38.891Z,19.31
2022-08-23T22:36:12.363Z,19.33
2022-08-23T22:38:43.177Z,19.31
2022-08-23T22:41:18.637Z,19.20
2022-08-23T22:43:49.130Z,19.17
2022-08-23T22:46:19.743Z,19.26
2022-08-23T22:48:50.311Z,19.41
2022-08-23T22:51:24.916Z,19.18
2022-08-23T22:53:59.824Z,19.05
2022-08-23T22:56:33.703Z,19.00
2022-08-23T22:59:04.312Z,18.89
2022-08-23T23:01:38.060Z,18.97
2022-08-23T23:04:11.296Z,18.87
2022-08-23T23:06:42.485Z,18.87
2022-08-23T23:09:14.457Z,18.90
2022-08-23T23:11:45.701Z,18.92
2022-08-23T23:14:18.438Z,18.88
2022-08-23T23:16:50.025Z,18.86
2022-08-23T23:19:39.560Z,18.88
2022-08-23T23:22:10.259Z,18.77
2022-08-23T23:24:41.294Z,18.89
2022-08-23T23:27:11.844Z,18.78
2022-08-23T23:29:43.992Z,18.74
2022-08-23T23:32:14.860Z,18.72
2022-08-23T23:34:45.486Z,18.68
2022-08-23T23:37:15.932Z,18.79
2022-08-23T23:39:46.614Z,18.76
2022-08-23T23:42:17.224Z,18.70
2022-08-23T23:44:47.678Z,18.62
2022-08-23T23:47:18.370Z,18.52
2022-08-23T23:49:48.829Z,18.46
2022-08-23T23:52:19.210Z,18.60
2022-08-23T23:54:50.034Z,18.59
2022-08-23T23:57:23.481Z,18.53
2022-08-23T23:59:55.220Z,18.51
